Time;durP1;ratioP1;P1;durP2;ratioP2;P2;SDS_P1;SDS_P2;PMS_P1;PMS_P2;Temp;Humidity;BMP_temperature;BMP_pressure;BME280_temperature;BME280_humidity;BME280_pressure;Samples;Min_cycle;Max_cycle;Signal;HPM_P1;HPM_P2
2023/02/27 00:01:45;;;;;;;7.37;4.80;;;0.90;99.90;;;;;;4212369;28;20296;-61
2023/02/27 00:03:46;;;;;;;8.50;4.93;;;0.80;99.90;;;;;;4211259;28;20837;-60
2023/02/27 00:05:48;;;;;;;5.93;3.80;;;0.80;99.90;;;;;;4212565;28;20732;-61
2023/02/27 00:07:49;;;;;;;8.27;4.87;;;0.90;99.90;;;;;;4211283;28;20342;-61
2023/02/27 00:09:52;;;;;;;7.17;4.37;;;0.90;99.90;;;;;;4212276;28;20284;-62
2023/02/27 00:11:53;;;;;;;7.27;4.53;;;0.90;99.90;;;;;;4211382;28;20265;-61
2023/02/27 00:13:54;;;;;;;7.20;4.30;;;1.00;99.90;;;;;;4212215;28;20318;-62
2023/02/27 00:15:55;;;;;;;6.60;4.43;;;1.00;99.90;;;;;;4211180;28;20702;-60
2023/02/27 00:17:58;;;;;;;7.77;4.33;;;0.90;99.90;;;;;;4212967;28;20318;-59
2023/02/27 00:19:59;;;;;;;6.47;4.00;;;1.00;99.90;;;;;;4211084;28;20261;-60
2023/02/27 00:22:00;;;;;;;7.73;4.60;;;1.00;99.90;;;;;;4212119;28;20288;-63
2023/02/27 00:24:01;;;;;;;6.03;3.67;;;1.00;99.90;;;;;;4211370;28;20273;-60
2023/02/27 00:26:03;;;;;;;5.13;3.50;;;1.00;99.90;;;;;;4211577;28;20713;-62
2023/02/27 00:28:04;;;;;;;5.57;3.63;;;1.00;99.90;;;;;;4211694;28;20257;-61
2023/02/27 00:30:08;;;;;;;4.97;3.57;;;1.00;99.90;;;;;;4211234;28;20261;-60
2023/02/27 00:32:09;;;;;;;4.80;3.33;;;1.00;99.90;;;;;;4211873;28;20687;-61
2023/02/27 00:34:10;;;;;;;7.07;3.53;;;1.00;99.90;;;;;;4210493;28;20269;-60
2023/02/27 00:36:11;;;;;;;5.20;3.07;;;1.00;99.90;;;;;;4212031;28;20768;-61
2023/02/27 00:38:13;;;;;;;5.20;3.57;;;1.00;99.90;;;;;;4210931;28;20264;-64
2023/02/27 00:40:15;;;;;;;6.83;4.20;;;1.00;99.90;;;;;;4212116;28;20248;-62
2023/02/27 00:42:16;;;;;;;5.90;4.00;;;1.10;99.90;;;;;;4210799;28;20300;-61
2023/02/27 00:44:17;;;;;;;6.27;4.03;;;1.10;99.90;;;;;;4211588;28;20268;-61
2023/02/27 00:46:18;;;;;;;4.50;3.50;;;1.10;99.90;;;;;;4210525;28;20318;-61
2023/02/27 00:48:19;;;;;;;5.07;3.30;;;1.10;99.90;;;;;;4211865;28;20264;-63
2023/02/27 00:50:20;;;;;;;6.73;3.80;;;1.10;99.90;;;;;;4210070;28;20679;-61
2023/02/27 00:52:22;;;;;;;5.07;3.60;;;1.20;99.90;;;;;;4211875;28;20280;-62
2023/02/27 00:54:23;;;;;;;6.43;3.27;;;1.20;99.90;;;;;;4209524;28;20283;-62
2023/02/27 00:56:24;;;;;;;6.20;3.83;;;1.20;99.90;;;;;;4211347;28;20256;-62
2023/02/27 00:58:25;;;;;;;5.03;3.47;;;1.20;99.90;;;;;;4211205;28;20324;-61
2023/02/27 01:00:26;;;;;;;4.03;3.00;;;1.20;99.90;;;;;;4211822;28;20277;-62
2023/02/27 01:02:27;;;;;;;4.17;2.93;;;1.20;99.90;;;;;;4211216;28;20338;-61
2023/02/27 01:04:29;;;;;;;4.40;2.80;;;1.20;99.90;;;;;;4210421;28;20343;-62
2023/02/27 01:06:30;;;;;;;3.87;2.57;;;1.20;99.90;;;;;;4211667;28;20322;-60
2023/02/27 01:08:31;;;;;;;4.17;2.70;;;1.20;99.90;;;;;;4210448;28;20833;-61
2023/02/27 01:10:32;;;;;;;5.00;3.23;;;1.20;99.90;;;;;;4211694;28;20790;-62
2023/02/27 01:12:33;;;;;;;3.97;2.77;;;1.20;99.90;;;;;;4210688;28;20261;-65
2023/02/27 01:14:35;;;;;;;3.47;2.70;;;1.20;99.90;;;;;;4211855;28;20655;-63
2023/02/27 01:16:36;;;;;;;3.40;2.47;;;1.20;99.90;;;;;;4210503;28;20670;-62
2023/02/27 01:18:37;;;;;;;3.77;2.90;;;1.20;99.90;;;;;;4212016;28;20664;-63
2023/02/27 01:20:39;;;;;;;7.93;4.23;;;1.30;99.90;;;;;;4210709;28;20311;-60
2023/02/27 01:22:40;;;;;;;7.70;4.73;;;1.20;99.90;;;;;;4211575;28;20293;-61
2023/02/27 01:24:41;;;;;;;8.73;5.33;;;1.20;99.90;;;;;;4210445;28;20342;-60
2023/02/27 01:26:43;;;;;;;12.43;6.77;;;1.20;99.90;;;;;;4211070;28;20306;-64
2023/02/27 01:28:44;;;;;;;15.23;9.07;;;1.20;99.90;;;;;;4210912;28;20256;-61
2023/02/27 01:30:46;;;;;;;12.63;6.63;;;1.20;99.90;;;;;;4210751;28;20257;-63
2023/02/27 01:32:47;;;;;;;8.10;5.20;;;1.10;99.90;;;;;;4211202;28;20310;-61
2023/02/27 01:34:48;;;;;;;7.93;4.93;;;1.10;99.90;;;;;;4210423;28;20269;-61
2023/02/27 01:36:49;;;;;;;12.83;5.90;;;1.00;99.90;;;;;;4211308;28;20325;-62
2023/02/27 01:38:50;;;;;;;8.13;5.87;;;0.90;99.90;;;;;;4210492;28;20357;-63
2023/02/27 01:40:52;;;;;;;9.13;5.37;;;0.90;99.90;;;;;;4211554;28;20697;-62
2023/02/27 01:42:53;;;;;;;7.20;4.60;;;0.80;99.90;;;;;;4210201;28;20269;-62
2023/02/27 01:45:24;;;;;;;9.40;5.50;;;0.90;99.90;;;;;;4211199;28;20279;-62
2023/02/27 01:47:25;;;;;;;6.40;4.57;;;0.90;99.90;;;;;;4206975;28;20272;-61
2023/02/27 01:49:33;;;;;;;7.40;5.00;;;0.80;99.90;;;;;;4211207;28;20073;-63
2023/02/27 01:51:40;;;;;;;6.87;4.13;;;0.80;99.90;;;;;;4209808;28;20260;-63
2023/02/27 01:53:44;;;;;;;7.90;4.63;;;0.80;99.90;;;;;;4200179;28;20310;-61
2023/02/27 01:55:48;;;;;;;7.37;3.73;;;0.80;99.90;;;;;;4209994;28;20284;-62
2023/02/27 01:57:50;;;;;;;7.07;4.07;;;0.80;99.90;;;;;;4211245;28;20273;-62
2023/02/27 01:59:51;;;;;;;6.07;4.00;;;0.80;99.90;;;;;;4210105;28;20306;-62
2023/02/27 02:01:52;;;;;;;5.90;4.20;;;0.80;99.90;;;;;;4211468;28;20277;-62
2023/02/27 02:03:59;;;;;;;4.83;3.30;;;0.80;99.90;;;;;;4210125;28;20252;-60
2023/02/27 02:06:03;;;;;;;6.37;3.77;;;0.80;99.90;;;;;;4211308;28;20285;-63
2023/02/27 02:08:05;;;;;;;4.57;2.90;;;0.80;99.90;;;;;;4210278;28;20257;-62
2023/02/27 02:10:07;;;;;;;5.97;3.20;;;0.70;99.90;;;;;;4210883;28;20288;-62
2023/02/27 02:12:14;;;;;;;5.50;2.83;;;0.70;99.90;;;;;;4210358;28;20260;-62
2023/02/27 02:14:15;;;;;;;4.27;2.70;;;0.70;99.90;;;;;;4214069;28;20752;-61
2023/02/27 02:16:47;;;;;;;3.47;2.37;;;0.70;99.90;;;;;;4213385;28;20756;-62
2023/02/27 02:18:58;;;;;;;10.53;2.70;;;0.70;99.90;;;;;;4213737;28;20272;-63
2023/02/27 02:21:30;;;;;;;3.55;2.72;;;0.70;99.90;;;;;;4212810;28;20283;-60
2023/02/27 02:23:59;;;;;;;4.50;2.50;;;0.70;99.90;;;;;;4213870;28;20044;-60
2023/02/27 02:26:28;;;;;;;5.40;2.10;;;0.70;99.90;;;;;;4196308;28;20327;-60
2023/02/27 02:28:42;;;;;;;1.93;1.53;;;0.70;99.90;;;;;;4201381;28;20337;-60
2023/02/27 02:30:52;;;;;;;3.80;1.70;;;0.70;99.90;;;;;;4212945;28;20397;-60
2023/02/27 02:33:20;;;;;;;4.03;1.67;;;0.70;99.90;;;;;;4214012;28;20265;-60
2023/02/27 02:35:50;;;;;;;3.93;1.80;;;0.70;99.90;;;;;;4212837;28;20260;-60
2023/02/27 02:38:12;;;;;;;2.10;1.67;;;0.70;99.90;;;;;;4213436;28;20249;-60
2023/02/27 02:40:28;;;;;;;2.67;1.53;;;0.70;99.90;;;;;;4213272;28;20269;-60
2023/02/27 02:42:37;;;;;;;2.80;1.50;;;0.80;99.90;;;;;;4212803;28;20362;-60
2023/02/27 02:44:48;;;;;;;3.87;1.80;;;0.80;99.90;;;;;;4213349;28;20330;-61
2023/02/27 02:47:25;;;;;;;2.70;1.30;;;0.80;99.90;;;;;;4213112;28;20699;-60
2023/02/27 02:49:54;;;;;;;2.13;1.50;;;0.70;99.90;;;;;;4213726;28;20675;-60
2023/02/27 02:52:09;;;;;;;5.80;2.00;;;0.80;99.90;;;;;;4212742;28;20273;-60
2023/02/27 02:54:15;;;;;;;4.67;2.13;;;0.80;99.90;;;;;;4213709;28;20273;-60
2023/02/27 02:56:32;;;;;;;4.47;1.30;;;0.70;99.90;;;;;;4212131;28;20288;-61
2023/02/27 02:58:45;;;;;;;1.87;1.00;;;0.80;99.90;;;;;;4213859;28;20280;-61
2023/02/27 03:00:55;;;;;;;2.47;0.97;;;0.70;99.90;;;;;;4212402;28;20330;-60
2023/02/27 03:03:04;;;;;;;1.93;0.93;;;0.70;99.90;;;;;;4213338;28;20322;-60
2023/02/27 03:05:14;;;;;;;2.13;0.93;;;0.80;99.90;;;;;;4211878;28;20329;-62
2023/02/27 03:07:24;;;;;;;1.87;0.77;;;0.70;99.90;;;;;;4212994;28;20273;-60
2023/02/27 03:09:30;;;;;;;2.25;0.82;;;0.70;99.90;;;;;;4212582;28;20334;-62
2023/02/27 03:11:36;;;;;;;1.13;0.80;;;0.80;99.90;;;;;;4213339;28;20028;-62
2023/02/27 03:13:59;;;;;;;2.00;1.07;;;0.80;99.90;;;;;;4212251;28;20329;-61
2023/02/27 03:16:03;;;;;;;1.70;1.10;;;0.80;99.90;;;;;;4213646;28;20276;-61
2023/02/27 03:18:16;;;;;;;1.33;1.07;;;0.80;99.90;;;;;;4212023;28;20277;-62
2023/02/27 03:20:32;;;;;;;2.93;1.43;;;0.80;99.90;;;;;;4213443;28;20289;-64
2023/02/27 03:22:37;;;;;;;8.93;4.37;;;0.80;99.90;;;;;;4211980;28;20292;-61
2023/02/27 03:24:43;;;;;;;11.87;4.60;;;0.80;99.90;;;;;;4212762;28;20273;-61
2023/02/27 03:26:46;;;;;;;9.03;3.33;;;0.80;99.90;;;;;;4212075;28;20726;-60
2023/02/27 03:28:58;;;;;;;8.03;3.10;;;0.80;99.90;;;;;;4213212;28;20864;-61
2023/02/27 03:31:07;;;;;;;10.60;4.00;;;0.80;99.90;;;;;;4211929;28;20265;-61
2023/02/27 03:33:20;;;;;;;10.90;3.97;;;0.80;99.90;;;;;;4213169;28;20276;-61
2023/02/27 03:35:39;;;;;;;6.73;3.13;;;0.80;99.90;;;;;;4211541;28;20334;-61
2023/02/27 03:37:49;;;;;;;4.23;2.00;;;0.80;99.90;;;;;;4212938;28;20441;-62
2023/02/27 03:40:09;;;;;;;6.22;2.25;;;0.80;99.90;;;;;;4211866;28;20269;-62
2023/02/27 03:42:15;;;;;;;3.97;1.87;;;0.80;99.90;;;;;;4212838;28;20040;-61
2023/02/27 03:44:52;;;;;;;3.37;1.17;;;0.80;99.90;;;;;;4212101;28;20322;-61
2023/02/27 03:46:53;;;;;;;3.37;1.20;;;0.80;99.90;;;;;;4211995;28;20342;-62
2023/02/27 03:48:54;;;;;;;5.33;1.60;;;0.80;99.90;;;;;;4211960;28;20268;-61
2023/02/27 03:50:56;;;;;;;3.80;1.27;;;0.80;99.90;;;;;;4212720;28;20261;-61
2023/02/27 03:52:57;;;;;;;4.43;0.90;;;0.80;99.90;;;;;;4211657;28;20667;-61
2023/02/27 03:55:01;;;;;;;2.10;1.03;;;0.80;99.90;;;;;;4212737;28;20306;-61
2023/02/27 03:57:07;;;;;;;4.80;1.60;;;0.90;99.90;;;;;;4210493;28;20342;-61
2023/02/27 03:59:09;;;;;;;4.90;1.73;;;0.80;99.90;;;;;;4212754;28;20339;-61
2023/02/27 04:01:10;;;;;;;2.27;1.20;;;0.80;99.90;;;;;;4211604;28;20608;-61
2023/02/27 04:03:12;;;;;;;2.27;1.00;;;0.80;99.90;;;;;;4212623;28;20346;-61
2023/02/27 04:05:13;;;;;;;2.40;1.20;;;0.80;99.90;;;;;;4211236;28;20244;-62
2023/02/27 04:07:43;;;;;;;2.27;1.20;;;0.90;99.90;;;;;;4212842;28;20265;-62
2023/02/27 04:10:22;;;;;;;1.92;1.60;;;0.90;99.90;;;;;;4206227;28;20338;-62
2023/02/27 04:12:37;;;;;;;2.00;1.20;;;0.90;99.90;;;;;;4212266;28;20032;-62
2023/02/27 04:14:42;;;;;;;1.83;1.17;;;0.90;99.90;;;;;;4211373;28;20257;-61
2023/02/27 04:16:52;;;;;;;1.40;0.90;;;0.90;99.90;;;;;;4212355;28;20733;-62
2023/02/27 04:18:56;;;;;;;1.80;1.10;;;0.90;99.90;;;;;;4211170;28;20265;-61
2023/02/27 04:21:24;;;;;;;7.70;1.77;;;1.00;99.90;;;;;;4212154;28;20261;-61
2023/02/27 04:23:38;;;;;;;1.70;1.07;;;1.00;99.90;;;;;;4194160;28;20335;-62
2023/02/27 04:26:16;;;;;;;2.00;0.87;;;1.00;99.90;;;;;;4204039;28;20257;-62
2023/02/27 04:28:45;;;;;;;1.13;1.03;;;1.00;99.90;;;;;;4211637;28;20825;-61
2023/02/27 04:31:12;;;;;;;2.40;0.70;;;1.00;99.90;;;;;;4206937;28;20260;-61
2023/02/27 04:33:16;;;;;;;4.30;1.10;;;1.00;99.90;;;;;;4201352;28;20337;-60
2023/02/27 04:35:29;;;;;;;3.20;1.00;;;1.00;99.90;;;;;;4210145;28;20305;-63
2023/02/27 04:37:41;;;;;;;1.90;1.33;;;1.00;99.90;;;;;;4212278;28;20265;-62
2023/02/27 04:39:50;;;;;;;2.40;1.10;;;0.90;99.90;;;;;;4210808;28;21270;-61
2023/02/27 04:42:02;;;;;;;3.30;1.40;;;0.90;99.90;;;;;;4211964;28;20671;-61
2023/02/27 04:44:07;;;;;;;2.57;1.40;;;0.90;99.90;;;;;;4210599;28;20272;-61
2023/02/27 04:46:12;;;;;;;1.30;0.90;;;0.90;99.90;;;;;;4211196;28;20310;-62
2023/02/27 04:48:32;;;;;;;6.87;1.73;;;0.90;99.90;;;;;;4210951;28;20338;-62
2023/02/27 04:50:41;;;;;;;3.60;1.20;;;0.90;99.90;;;;;;4211800;28;20333;-60
2023/02/27 04:52:50;;;;;;;1.83;1.20;;;0.90;99.90;;;;;;4210527;28;20686;-61
2023/02/27 04:55:12;;;;;;;8.83;1.63;;;0.90;99.90;;;;;;4211628;28;20261;-62
2023/02/27 04:57:19;;;;;;;8.60;1.80;;;0.90;99.90;;;;;;4210315;28;20771;-62
2023/02/27 04:59:29;;;;;;;1.80;1.30;;;0.90;99.90;;;;;;4211476;28;20893;-63
2023/02/27 05:01:56;;;;;;;3.07;1.67;;;0.90;99.90;;;;;;4210243;28;20310;-62
2023/02/27 05:03:57;;;;;;;2.97;1.20;;;0.90;99.90;;;;;;4208590;28;20284;-62
2023/02/27 05:06:00;;;;;;;3.80;1.67;;;0.80;99.90;;;;;;4210432;28;20264;-61
2023/02/27 05:08:42;;;;;;;3.87;2.43;;;0.90;99.90;;;;;;4211276;28;20273;-61
2023/02/27 05:10:56;;;;;;;3.30;3.00;;;0.90;99.90;;;;;;4210034;28;20265;-62
2023/02/27 05:13:02;;;;;;;6.10;2.73;;;0.90;99.90;;;;;;4211094;28;20273;-60
2023/02/27 05:15:14;;;;;;;3.27;2.40;;;0.90;99.90;;;;;;4210106;28;20342;-61
2023/02/27 05:17:27;;;;;;;4.47;3.17;;;0.90;99.90;;;;;;4211220;28;20738;-62
2023/02/27 05:19:35;;;;;;;3.73;2.50;;;0.90;99.90;;;;;;4209987;28;20286;-61
2023/02/27 05:22:10;;;;;;;8.63;3.37;;;0.90;99.90;;;;;;4210916;28;20276;-60
2023/02/27 05:24:33;;;;;;;13.63;3.60;;;0.90;99.90;;;;;;4209828;28;20342;-62
2023/02/27 05:26:58;;;;;;;10.30;3.60;;;0.90;99.90;;;;;;4210043;28;20340;-64
2023/02/27 05:29:20;;;;;;;6.27;2.73;;;0.90;99.90;;;;;;4208742;28;20330;-64
2023/02/27 05:31:32;;;;;;;4.50;3.43;;;1.00;99.90;;;;;;4209768;28;20314;-63
2023/02/27 05:34:11;;;;;;;4.47;3.33;;;1.00;99.90;;;;;;4210652;28;20307;-62
2023/02/27 05:36:31;;;;;;;7.27;3.77;;;1.00;99.90;;;;;;4196063;28;20433;-62
2023/02/27 05:38:47;;;;;;;7.73;3.93;;;1.00;99.90;;;;;;4209512;28;20273;-63
2023/02/27 05:40:54;;;;;;;5.50;3.50;;;1.00;99.90;;;;;;4209472;28;20269;-63
2023/02/27 05:43:19;;;;;;;7.23;4.13;;;1.00;99.90;;;;;;4210561;28;20285;-62
2023/02/27 05:45:24;;;;;;;6.83;4.40;;;1.10;99.90;;;;;;4209478;28;20265;-62
2023/02/27 05:47:30;;;;;;;8.50;4.07;;;1.10;99.90;;;;;;4213641;28;20375;-62
2023/02/27 05:50:00;;;;;;;5.53;3.53;;;1.10;99.90;;;;;;4213242;28;20272;-62
2023/02/27 05:52:06;;;;;;;7.28;3.90;;;1.00;99.90;;;;;;4214379;28;20265;-62
2023/02/27 05:54:29;;;;;;;7.53;3.80;;;1.00;99.90;;;;;;4213074;28;20024;-64
2023/02/27 05:56:33;;;;;;;5.10;3.70;;;1.00;99.90;;;;;;4210039;28;20299;-62
2023/02/27 05:58:39;;;;;;;6.97;5.37;;;1.00;99.90;;;;;;4212290;28;20343;-63
2023/02/27 06:00:49;;;;;;;10.87;5.40;;;1.00;99.90;;;;;;4213800;28;20281;-63
2023/02/27 06:02:52;;;;;;;13.15;5.07;;;1.00;99.90;;;;;;4212636;28;20280;-61
2023/02/27 06:04:54;;;;;;;10.67;5.30;;;1.00;99.90;;;;;;4212964;28;20040;-64
2023/02/27 06:06:56;;;;;;;9.33;3.70;;;1.00;99.90;;;;;;4212658;28;20345;-63
2023/02/27 06:08:57;;;;;;;9.27;4.00;;;1.00;99.90;;;;;;4212671;28;20770;-62
2023/02/27 06:10:58;;;;;;;8.70;3.37;;;1.00;99.90;;;;;;4213112;28;20541;-64
2023/02/27 06:12:59;;;;;;;5.03;2.10;;;1.00;99.90;;;;;;4213973;28;20299;-60
2023/02/27 06:15:00;;;;;;;7.07;3.43;;;1.00;99.90;;;;;;4212987;28;20631;-61
2023/02/27 06:17:01;;;;;;;3.03;1.97;;;1.00;99.90;;;;;;4213988;28;20810;-62
2023/02/27 06:19:03;;;;;;;5.83;1.80;;;1.00;99.90;;;;;;4213077;28;20655;-63
2023/02/27 06:21:05;;;;;;;3.63;1.97;;;0.90;99.90;;;;;;4213915;28;20265;-63
2023/02/27 06:23:07;;;;;;;6.33;2.23;;;0.90;99.90;;;;;;4212778;28;20326;-62
2023/02/27 06:25:08;;;;;;;4.47;2.50;;;1.00;99.90;;;;;;4213567;28;20674;-62
2023/02/27 06:27:09;;;;;;;5.73;1.90;;;1.00;99.90;;;;;;4213572;28;20253;-62
2023/02/27 06:29:11;;;;;;;4.60;2.13;;;1.00;99.90;;;;;;4213252;28;20334;-62
2023/02/27 06:31:12;;;;;;;2.63;2.27;;;0.90;99.90;;;;;;4213682;28;20741;-62
2023/02/27 06:33:13;;;;;;;5.30;2.40;;;0.90;99.90;;;;;;4212435;28;20284;-61
2023/02/27 06:35:14;;;;;;;3.90;2.60;;;0.90;99.90;;;;;;4213886;28;20805;-61
2023/02/27 06:37:15;;;;;;;6.90;3.17;;;0.90;99.90;;;;;;4212470;28;20314;-61
2023/02/27 06:39:17;;;;;;;7.20;3.77;;;1.00;99.90;;;;;;4213585;28;20310;-62
2023/02/27 06:41:18;;;;;;;4.40;3.20;;;1.00;99.90;;;;;;4212706;28;20265;-62
2023/02/27 06:43:21;;;;;;;7.80;3.67;;;1.00;99.90;;;;;;4213404;28;20315;-62
2023/02/27 06:45:23;;;;;;;5.87;4.83;;;1.10;99.90;;;;;;4212525;28;20322;-61
2023/02/27 06:47:24;;;;;;;8.30;4.27;;;1.00;99.90;;;;;;4213659;28;20314;-61
2023/02/27 06:49:25;;;;;;;6.13;3.90;;;1.10;99.90;;;;;;4212886;28;20268;-62
2023/02/27 06:51:26;;;;;;;8.50;3.73;;;1.10;99.90;;;;;;4213531;28;20272;-62
2023/02/27 06:53:27;;;;;;;5.53;3.70;;;1.10;99.90;;;;;;4212478;28;20278;-62
2023/02/27 06:55:28;;;;;;;5.57;3.30;;;1.10;99.90;;;;;;4213149;28;20252;-65
2023/02/27 06:57:30;;;;;;;7.13;4.30;;;1.20;99.90;;;;;;4212735;28;20260;-62
2023/02/27 06:59:31;;;;;;;12.23;4.83;;;1.20;99.90;;;;;;4212134;28;20265;-62
2023/02/27 07:01:32;;;;;;;9.53;4.67;;;1.30;99.90;;;;;;4213088;28;20781;-62
2023/02/27 07:03:33;;;;;;;10.60;4.90;;;1.30;99.90;;;;;;4212260;28;20357;-61
2023/02/27 07:05:35;;;;;;;5.80;3.70;;;1.30;99.90;;;;;;4213307;28;20810;-62
2023/02/27 07:07:36;;;;;;;9.07;4.13;;;1.30;99.90;;;;;;4212212;28;20299;-62
2023/02/27 07:09:37;;;;;;;6.10;4.03;;;1.30;99.90;;;;;;4213474;28;20774;-61
2023/02/27 07:11:38;;;;;;;11.53;5.27;;;1.30;99.90;;;;;;4211772;28;20290;-62
2023/02/27 07:13:39;;;;;;;9.27;6.37;;;1.40;99.90;;;;;;4213060;28;20264;-62
2023/02/27 07:15:40;;;;;;;9.13;5.67;;;1.50;99.90;;;;;;4212282;28;20310;-62
2023/02/27 07:17:42;;;;;;;10.20;5.10;;;1.50;99.90;;;;;;4212557;28;20265;-61
2023/02/27 07:19:44;;;;;;;8.27;4.03;;;1.50;99.90;;;;;;4212205;28;20318;-62
2023/02/27 07:21:45;;;;;;;6.90;4.50;;;1.60;99.90;;;;;;4213170;28;20269;-64
2023/02/27 07:23:46;;;;;;;10.03;5.17;;;1.60;99.90;;;;;;4211700;28;20350;-62
2023/02/27 07:25:47;;;;;;;10.30;4.87;;;1.60;99.90;;;;;;4212368;28;20284;-62
2023/02/27 07:27:49;;;;;;;7.87;4.20;;;1.60;99.90;;;;;;4212013;28;20253;-65
2023/02/27 07:29:51;;;;;;;12.40;6.10;;;1.70;99.90;;;;;;4211795;28;20257;-61
2023/02/27 07:31:52;;;;;;;10.73;6.40;;;1.90;99.90;;;;;;4212307;28;20329;-62
2023/02/27 07:33:55;;;;;;;11.53;5.67;;;1.90;99.90;;;;;;4211881;28;20280;-62
2023/02/27 07:35:56;;;;;;;10.00;5.07;;;2.00;99.90;;;;;;4212532;28;20289;-62
2023/02/27 07:37:57;;;;;;;11.37;5.20;;;2.10;99.90;;;;;;4211620;28;20960;-63
2023/02/27 07:39:58;;;;;;;6.30;3.50;;;2.10;99.90;;;;;;4212472;28;20265;-62
2023/02/27 07:41:59;;;;;;;6.77;3.03;;;2.10;99.90;;;;;;4211509;28;20261;-62
2023/02/27 07:44:00;;;;;;;6.70;3.17;;;2.10;99.90;;;;;;4212624;28;20297;-63
2023/02/27 07:46:05;;;;;;;6.07;3.03;;;2.20;99.90;;;;;;4211463;28;20333;-64
2023/02/27 07:48:06;;;;;;;5.40;2.57;;;2.20;99.90;;;;;;4212525;28;20280;-62
2023/02/27 07:50:08;;;;;;;2.73;2.07;;;2.20;99.90;;;;;;4211565;28;20764;-61
2023/02/27 07:52:10;;;;;;;5.93;3.13;;;2.20;99.90;;;;;;4212445;28;20775;-61
2023/02/27 07:54:11;;;;;;;3.30;2.20;;;2.20;99.90;;;;;;4211277;28;20354;-62
2023/02/27 07:56:12;;;;;;;3.03;1.90;;;2.20;99.90;;;;;;4212386;28;20265;-62
2023/02/27 07:58:14;;;;;;;5.27;2.77;;;2.20;99.90;;;;;;4211426;28;20716;-63
2023/02/27 08:00:15;;;;;;;4.90;2.20;;;2.30;99.90;;;;;;4211945;28;20273;-63
2023/02/27 08:02:16;;;;;;;3.63;1.83;;;2.20;99.90;;;;;;4211907;28;20317;-65
2023/02/27 08:04:18;;;;;;;3.00;1.80;;;2.20;99.90;;;;;;4211232;28;20606;-63
2023/02/27 08:06:19;;;;;;;5.67;2.57;;;2.20;99.90;;;;;;4212209;28;20307;-63
2023/02/27 08:08:20;;;;;;;5.77;2.13;;;2.10;99.90;;;;;;4211113;28;20602;-62
2023/02/27 08:10:22;;;;;;;6.13;2.20;;;2.10;99.90;;;;;;4212594;28;20277;-63
2023/02/27 08:12:23;;;;;;;4.50;2.70;;;2.10;99.90;;;;;;4211383;28;20308;-62
2023/02/27 08:14:24;;;;;;;3.60;2.50;;;2.10;99.90;;;;;;4212173;28;20276;-63
2023/02/27 08:16:25;;;;;;;5.07;2.10;;;2.20;99.90;;;;;;4210985;28;20307;-62
2023/02/27 08:18:26;;;;;;;3.97;2.57;;;2.10;99.90;;;;;;4211947;28;20679;-62
2023/02/27 08:20:27;;;;;;;4.30;2.67;;;2.20;99.90;;;;;;4211514;28;20280;-62
2023/02/27 08:22:28;;;;;;;3.63;2.10;;;2.30;99.90;;;;;;4212367;28;20311;-62
2023/02/27 08:24:30;;;;;;;4.47;2.50;;;2.30;99.90;;;;;;4210722;28;20326;-62
2023/02/27 08:26:31;;;;;;;3.53;2.37;;;2.40;99.90;;;;;;4211838;28;20265;-62
2023/02/27 08:28:32;;;;;;;6.17;2.40;;;2.40;99.90;;;;;;4211213;28;20713;-62
2023/02/27 08:30:33;;;;;;;3.40;2.23;;;2.60;99.90;;;;;;4211221;28;20295;-62
2023/02/27 08:32:35;;;;;;;3.47;2.23;;;2.60;99.90;;;;;;4211273;28;20614;-62
2023/02/27 08:34:36;;;;;;;5.90;2.40;;;2.70;99.90;;;;;;4210752;28;20933;-63
2023/02/27 08:36:38;;;;;;;3.63;2.23;;;2.80;99.90;;;;;;4211446;28;20273;-63
2023/02/27 08:38:39;;;;;;;3.23;2.60;;;2.80;99.90;;;;;;4210514;28;20728;-63
2023/02/27 08:40:41;;;;;;;6.17;3.80;;;2.90;99.90;;;;;;4211828;28;20326;-62
2023/02/27 08:42:42;;;;;;;5.30;3.50;;;2.70;99.90;;;;;;4208934;28;20299;-62
2023/02/27 08:44:43;;;;;;;5.77;3.20;;;2.70;99.90;;;;;;4212160;28;20273;-63
2023/02/27 08:46:44;;;;;;;6.07;4.10;;;2.80;99.90;;;;;;4210405;28;20257;-62
2023/02/27 08:48:45;;;;;;;7.50;4.83;;;2.90;99.90;;;;;;4211687;28;20724;-62
2023/02/27 08:50:47;;;;;;;9.47;6.17;;;2.90;99.90;;;;;;4211023;28;20273;-62
2023/02/27 08:52:48;;;;;;;12.23;5.77;;;3.00;99.90;;;;;;4211924;28;20276;-62
2023/02/27 08:54:49;;;;;;;58.20;25.33;;;3.00;99.90;;;;;;4210329;28;21123;-64
2023/02/27 08:56:50;;;;;;;20.23;10.37;;;3.00;99.90;;;;;;4211265;28;20272;-63
2023/02/27 08:58:51;;;;;;;9.83;5.00;;;3.00;99.90;;;;;;4210694;28;20314;-63
2023/02/27 09:00:53;;;;;;;34.27;13.03;;;3.00;99.90;;;;;;4211041;28;20346;-65
2023/02/27 09:02:54;;;;;;;80.23;29.93;;;2.80;99.90;;;;;;4210644;28;20290;-64
2023/02/27 09:04:55;;;;;;;81.83;28.63;;;2.80;99.90;;;;;;4210322;28;20314;-64
2023/02/27 09:06:56;;;;;;;51.37;19.47;;;2.70;99.90;;;;;;4211180;28;20655;-62
2023/02/27 09:08:58;;;;;;;35.23;12.60;;;2.50;99.90;;;;;;4210525;28;20269;-62
2023/02/27 09:10:59;;;;;;;36.33;13.50;;;2.50;99.90;;;;;;4211223;28;20277;-62
2023/02/27 09:13:01;;;;;;;71.37;24.43;;;2.40;99.90;;;;;;4210227;28;20273;-64
2023/02/27 09:15:02;;;;;;;100.10;34.03;;;2.40;99.90;;;;;;4211225;28;20326;-63
2023/02/27 09:17:03;;;;;;;78.53;27.83;;;2.40;99.90;;;;;;4210181;28;20277;-65
2023/02/27 09:19:05;;;;;;;114.93;41.07;;;2.30;99.90;;;;;;4211037;28;20725;-65
2023/02/27 09:21:06;;;;;;;44.27;16.20;;;2.30;99.90;;;;;;4209796;28;20269;-64
2023/02/27 09:23:07;;;;;;;56.87;22.73;;;2.30;99.90;;;;;;4211259;28;20284;-66
2023/02/27 09:25:09;;;;;;;36.87;14.50;;;2.40;99.90;;;;;;4210210;28;20802;-63
2023/02/27 09:27:10;;;;;;;23.83;11.00;;;2.40;99.90;;;;;;4211122;28;20257;-65
2023/02/27 09:29:11;;;;;;;49.00;21.97;;;2.50;99.90;;;;;;4210546;28;20257;-64
2023/02/27 09:31:12;;;;;;;58.63;24.60;;;2.60;99.90;;;;;;4210420;28;20310;-64
2023/02/27 09:33:14;;;;;;;17.60;10.17;;;2.70;99.90;;;;;;4210431;28;20253;-63
2023/02/27 09:35:15;;;;;;;11.73;6.57;;;2.80;99.90;;;;;;4210063;28;20265;-65
2023/02/27 09:37:18;;;;;;;11.97;6.40;;;2.80;99.90;;;;;;4211024;28;20698;-62
2023/02/27 09:39:19;;;;;;;8.87;4.80;;;2.80;99.90;;;;;;4209665;28;20280;-63
2023/02/27 09:41:45;;;;;;;6.03;4.50;;;2.80;99.90;;;;;;4210859;28;20341;-63
2023/02/27 09:43:49;;;;;;;7.37;4.80;;;2.80;99.90;;;;;;4209860;28;20285;-64
2023/02/27 09:45:54;;;;;;;9.23;5.50;;;2.80;99.90;;;;;;4210704;28;20257;-62
2023/02/27 09:48:04;;;;;;;37.83;16.27;;;2.90;99.90;;;;;;4209702;28;20330;-62
2023/02/27 09:50:26;;;;;;;20.80;9.23;;;3.00;99.90;;;;;;4211110;28;20322;-65
2023/02/27 09:52:29;;;;;;;11.27;6.77;;;3.00;99.90;;;;;;4209557;28;20629;-62
2023/02/27 09:54:33;;;;;;;35.93;15.80;;;2.90;99.90;;;;;;4210565;28;20699;-62
2023/02/27 09:57:01;;;;;;;22.10;10.33;;;3.00;99.90;;;;;;4209601;28;20326;-63
2023/02/27 09:59:42;;;;;;;14.50;8.10;;;2.90;99.90;;;;;;4210532;28;20350;-61
2023/02/27 10:01:51;;;;;;;5.63;3.83;;;3.00;99.90;;;;;;4210651;28;20326;-63
2023/02/27 10:04:14;;;;;;;8.17;4.37;;;3.00;99.90;;;;;;4209710;28;20338;-62
2023/02/27 10:06:27;;;;;;;4.73;3.93;;;3.00;99.90;;;;;;4210975;28;20322;-62
2023/02/27 10:08:36;;;;;;;4.23;2.83;;;3.10;99.90;;;;;;4209619;28;20598;-62
2023/02/27 10:10:53;;;;;;;4.40;2.80;;;3.10;99.90;;;;;;4210923;28;20284;-65
2023/02/27 10:13:13;;;;;;;6.17;3.37;;;3.00;99.90;;;;;;4209617;28;20278;-64
2023/02/27 10:15:35;;;;;;;5.67;3.57;;;3.10;99.90;;;;;;4210749;28;20272;-63
2023/02/27 10:17:55;;;;;;;5.00;3.73;;;3.10;99.90;;;;;;4209469;28;20261;-63
2023/02/27 10:19:58;;;;;;;7.33;3.87;;;3.10;99.90;;;;;;4210788;28;20261;-62
2023/02/27 10:22:03;;;;;;;6.40;3.73;;;3.20;99.90;;;;;;4209698;28;20249;-65
2023/02/27 10:24:14;;;;;;;4.30;3.00;;;3.20;99.90;;;;;;4210334;28;20830;-63
2023/02/27 10:26:40;;;;;;;9.17;3.27;;;3.20;99.90;;;;;;4209326;28;20937;-62
2023/02/27 10:28:41;;;;;;;5.60;2.50;;;3.20;99.90;;;;;;4210720;28;20277;-63
2023/02/27 10:30:48;;;;;;;2.90;2.33;;;3.10;99.90;;;;;;4209279;28;20298;-64
2023/02/27 10:33:00;;;;;;;3.87;2.40;;;3.10;99.90;;;;;;4210541;28;20682;-63
2023/02/27 10:35:11;;;;;;;3.87;2.73;;;3.00;99.90;;;;;;4212304;28;20268;-62
2023/02/27 10:37:15;;;;;;;3.70;2.57;;;2.90;99.90;;;;;;4213751;28;20683;-64
2023/02/27 10:39:19;;;;;;;3.87;2.87;;;2.80;99.90;;;;;;4212871;28;20265;-65
2023/02/27 10:41:22;;;;;;;4.93;3.03;;;2.80;99.90;;;;;;4213780;28;20814;-64
2023/02/27 10:43:23;;;;;;;4.57;3.10;;;2.70;99.90;;;;;;4212131;28;20764;-62
2023/02/27 10:45:25;;;;;;;4.33;2.93;;;2.70;99.90;;;;;;4213436;28;20314;-63
2023/02/27 10:47:27;;;;;;;2.90;1.80;;;2.70;99.90;;;;;;4212203;28;20264;-63
2023/02/27 10:49:31;;;;;;;6.10;3.60;;;2.70;99.90;;;;;;4212987;28;20253;-65
2023/02/27 10:51:35;;;;;;;16.07;11.10;;;2.70;99.90;;;;;;4212468;28;20233;-61
2023/02/27 10:53:37;;;;;;;4.07;2.87;;;2.70;99.90;;;;;;4212417;28;20253;-63
2023/02/27 10:55:38;;;;;;;5.03;4.27;;;2.80;99.90;;;;;;4212444;28;20276;-63
2023/02/27 10:57:44;;;;;;;3.20;2.23;;;2.90;99.90;;;;;;4211391;28;20617;-66
2023/02/27 10:59:52;;;;;;;3.73;2.93;;;2.90;99.90;;;;;;4212425;28;20647;-63
2023/02/27 11:01:57;;;;;;;16.57;14.80;;;2.90;99.90;;;;;;4212192;28;20260;-65
2023/02/27 11:03:59;;;;;;;6.87;5.20;;;3.00;99.90;;;;;;4212489;28;20334;-63
2023/02/27 11:06:19;;;;;;;6.63;4.97;;;3.00;99.90;;;;;;4211714;28;20352;-63
2023/02/27 11:08:27;;;;;;;9.52;7.97;;;3.10;99.90;;;;;;4212588;28;20257;-64